sensor_id;sensor_type;location;lat;lon;timestamp;P1;durP1;ratioP1;P2;durP2;ratioP2
10890;SDS011;5498;50.928;11.598;2022-08-30T00:02:59;1273.33;;;999.90;;
10890;SDS011;5498;50.928;11.598;2022-08-30T00:06:01;1211.10;;;999.90;;
10890;SDS011;5498;50.928;11.598;2022-08-30T00:09:06;1260.57;;;999.90;;
10890;SDS011;5498;50.928;11.598;2022-08-30T00:12:08;1087.87;;;993.80;;
10890;SDS011;5498;50.928;11.598;2022-08-30T00:15:11;1130.03;;;999.90;;
10890;SDS011;5498;50.928;11.598;2022-08-30T00:18:15;1194.83;;;999.90;;
10890;SDS011;5498;50.928;11.598;2022-08-30T00:21:18;1226.13;;;999.90;;
10890;SDS011;5498;50.928;11.598;2022-08-30T00:24:19;1182.63;;;999.90;;
10890;SDS011;5498;50.928;11.598;2022-08-30T00:27:21;1194.33;;;999.90;;
10890;SDS011;5498;50.928;11.598;2022-08-30T00:30:23;1226.70;;;999.90;;
10890;SDS011;5498;50.928;11.598;2022-08-30T00:33:27;1155.57;;;999.90;;
10890;SDS011;5498;50.928;11.598;2022-08-30T00:36:29;1249.60;;;999.90;;
10890;SDS011;5498;50.928;11.598;2022-08-30T00:39:31;1151.83;;;999.90;;
10890;SDS011;5498;50.928;11.598;2022-08-30T00:42:33;1241.57;;;999.90;;
10890;SDS011;5498;50.928;11.598;2022-08-30T00:45:36;1248.03;;;999.90;;
10890;SDS011;5498;50.928;11.598;2022-08-30T00:48:42;1115.73;;;999.90;;
10890;SDS011;5498;50.928;11.598;2022-08-30T00:51:47;1251.30;;;999.90;;
10890;SDS011;5498;50.928;11.598;2022-08-30T00:54:50;1240.77;;;999.90;;
10890;SDS011;5498;50.928;11.598;2022-08-30T00:57:54;1138.23;;;999.90;;
10890;SDS011;5498;50.928;11.598;2022-08-30T01:01:00;1109.33;;;999.90;;
10890;SDS011;5498;50.928;11.598;2022-08-30T01:04:05;1079.57;;;986.67;;
10890;SDS011;5498;50.928;11.598;2022-08-30T01:07:08;1146.20;;;999.90;;
10890;SDS011;5498;50.928;11.598;2022-08-30T01:10:11;1223.47;;;999.90;;
10890;SDS011;5498;50.928;11.598;2022-08-30T01:13:15;1243.53;;;999.90;;
10890;SDS011;5498;50.928;11.598;2022-08-30T01:16:17;1224.20;;;999.90;;
10890;SDS011;5498;50.928;11.598;2022-08-30T01:19:24;600.40;;;553.17;;
10890;SDS011;5498;50.928;11.598;2022-08-30T01:22:35;242.97;;;228.50;;
10890;SDS011;5498;50.928;11.598;2022-08-30T01:25:45;311.53;;;292.30;;
10890;SDS011;5498;50.928;11.598;2022-08-30T01:28:51;148.77;;;140.57;;
10890;SDS011;5498;50.928;11.598;2022-08-30T01:31:57;182.13;;;172.00;;
10890;SDS011;5498;50.928;11.598;2022-08-30T01:34:59;241.20;;;227.33;;
10890;SDS011;5498;50.928;11.598;2022-08-30T01:38:00;437.13;;;406.93;;
10890;SDS011;5498;50.928;11.598;2022-08-30T01:41:08;217.53;;;204.50;;
10890;SDS011;5498;50.928;11.598;2022-08-30T01:44:12;322.07;;;302.37;;
10890;SDS011;5498;50.928;11.598;2022-08-30T01:47:16;283.63;;;266.27;;
10890;SDS011;5498;50.928;11.598;2022-08-30T01:50:18;361.70;;;338.50;;
10890;SDS011;5498;50.928;11.598;2022-08-30T01:53:20;302.57;;;284.13;;
10890;SDS011;5498;50.928;11.598;2022-08-30T01:56:24;284.67;;;267.70;;
10890;SDS011;5498;50.928;11.598;2022-08-30T01:59:28;497.33;;;461.13;;
10890;SDS011;5498;50.928;11.598;2022-08-30T02:02:30;736.17;;;675.53;;
10890;SDS011;5498;50.928;11.598;2022-08-30T02:05:40;861.17;;;789.77;;
10890;SDS011;5498;50.928;11.598;2022-08-30T02:08:42;1055.03;;;968.43;;
10890;SDS011;5498;50.928;11.598;2022-08-30T02:11:46;985.23;;;903.27;;
10890;SDS011;5498;50.928;11.598;2022-08-30T02:14:48;958.00;;;878.33;;
10890;SDS011;5498;50.928;11.598;2022-08-30T02:17:50;994.90;;;912.30;;
10890;SDS011;5498;50.928;11.598;2022-08-30T02:20:52;1149.90;;;999.90;;
10890;SDS011;5498;50.928;11.598;2022-08-30T02:23:54;1094.13;;;992.93;;
10890;SDS011;5498;50.928;11.598;2022-08-30T02:26:57;1023.53;;;927.37;;
10890;SDS011;5498;50.928;11.598;2022-08-30T02:29:59;1121.67;;;999.90;;
10890;SDS011;5498;50.928;11.598;2022-08-30T02:33:01;1077.60;;;989.47;;
10890;SDS011;5498;50.928;11.598;2022-08-30T02:36:04;1041.53;;;956.10;;
10890;SDS011;5498;50.928;11.598;2022-08-30T02:39:07;1092.30;;;999.90;;
10890;SDS011;5498;50.928;11.598;2022-08-30T02:42:11;1041.60;;;956.67;;
10890;SDS011;5498;50.928;11.598;2022-08-30T02:45:14;1131.00;;;999.90;;
10890;SDS011;5498;50.928;11.598;2022-08-30T02:48:16;1148.33;;;999.90;;
10890;SDS011;5498;50.928;11.598;2022-08-30T02:51:18;945.13;;;855.57;;
10890;SDS011;5498;50.928;11.598;2022-08-30T02:54:21;1013.37;;;918.50;;
10890;SDS011;5498;50.928;11.598;2022-08-30T02:57:24;1055.40;;;958.50;;
10890;SDS011;5498;50.928;11.598;2022-08-30T03:00:26;1032.43;;;937.37;;
10890;SDS011;5498;50.928;11.598;2022-08-30T03:03:29;1026.17;;;931.70;;
10890;SDS011;5498;50.928;11.598;2022-08-30T03:06:31;1008.60;;;915.10;;
10890;SDS011;5498;50.928;11.598;2022-08-30T03:09:35;1009.30;;;915.87;;
10890;SDS011;5498;50.928;11.598;2022-08-30T03:12:38;1000.97;;;908.07;;
10890;SDS011;5498;50.928;11.598;2022-08-30T03:15:40;993.67;;;900.83;;
10890;SDS011;5498;50.928;11.598;2022-08-30T03:18:42;957.50;;;867.40;;
10890;SDS011;5498;50.928;11.598;2022-08-30T03:21:44;962.93;;;871.90;;
10890;SDS011;5498;50.928;11.598;2022-08-30T03:24:46;987.27;;;895.47;;
10890;SDS011;5498;50.928;11.598;2022-08-30T03:27:49;984.63;;;893.37;;
10890;SDS011;5498;50.928;11.598;2022-08-30T03:30:51;970.60;;;879.77;;
10890;SDS011;5498;50.928;11.598;2022-08-30T03:33:53;974.90;;;883.93;;
10890;SDS011;5498;50.928;11.598;2022-08-30T03:36:56;973.17;;;882.63;;
10890;SDS011;5498;50.928;11.598;2022-08-30T03:40:00;976.47;;;885.50;;
10890;SDS011;5498;50.928;11.598;2022-08-30T03:43:06;977.53;;;886.77;;
10890;SDS011;5498;50.928;11.598;2022-08-30T03:46:08;977.13;;;886.37;;
10890;SDS011;5498;50.928;11.598;2022-08-30T03:49:12;983.47;;;891.83;;
10890;SDS011;5498;50.928;11.598;2022-08-30T03:52:14;981.20;;;890.10;;
10890;SDS011;5498;50.928;11.598;2022-08-30T03:55:16;984.53;;;893.60;;
10890;SDS011;5498;50.928;11.598;2022-08-30T03:58:19;988.07;;;896.87;;
10890;SDS011;5498;50.928;11.598;2022-08-30T04:01:21;963.33;;;873.40;;
10890;SDS011;5498;50.928;11.598;2022-08-30T04:04:23;957.47;;;867.60;;
10890;SDS011;5498;50.928;11.598;2022-08-30T04:07:26;973.43;;;883.03;;
10890;SDS011;5498;50.928;11.598;2022-08-30T04:10:29;984.73;;;893.63;;
10890;SDS011;5498;50.928;11.598;2022-08-30T04:13:33;984.87;;;893.97;;
10890;SDS011;5498;50.928;11.598;2022-08-30T04:16:35;969.03;;;879.23;;
10890;SDS011;5498;50.928;11.598;2022-08-30T04:19:37;976.60;;;886.73;;
10890;SDS011;5498;50.928;11.598;2022-08-30T04:22:48;979.92;;;889.27;;
10890;SDS011;5498;50.928;11.598;2022-08-30T04:25:50;981.63;;;891.10;;
10890;SDS011;5498;50.928;11.598;2022-08-30T04:28:53;977.33;;;887.43;;
10890;SDS011;5498;50.928;11.598;2022-08-30T04:31:55;973.90;;;883.90;;
10890;SDS011;5498;50.928;11.598;2022-08-30T04:34:57;964.80;;;875.03;;
10890;SDS011;5498;50.928;11.598;2022-08-30T04:37:59;959.37;;;870.27;;
10890;SDS011;5498;50.928;11.598;2022-08-30T04:41:02;959.17;;;869.90;;
10890;SDS011;5498;50.928;11.598;2022-08-30T04:44:10;955.03;;;866.27;;
10890;SDS011;5498;50.928;11.598;2022-08-30T04:47:12;986.13;;;895.33;;
10890;SDS011;5498;50.928;11.598;2022-08-30T04:50:15;935.87;;;847.97;;
10890;SDS011;5498;50.928;11.598;2022-08-30T04:53:20;960.30;;;871.60;;
10890;SDS011;5498;50.928;11.598;2022-08-30T04:56:22;941.97;;;853.77;;
10890;SDS011;5498;50.928;11.598;2022-08-30T04:59:26;979.93;;;889.80;;
10890;SDS011;5498;50.928;11.598;2022-08-30T05:02:28;982.10;;;891.97;;
10890;SDS011;5498;50.928;11.598;2022-08-30T05:05:30;967.67;;;878.27;;
10890;SDS011;5498;50.928;11.598;2022-08-30T05:08:41;961.53;;;872.73;;
10890;SDS011;5498;50.928;11.598;2022-08-30T05:11:43;984.07;;;894.03;;
10890;SDS011;5498;50.928;11.598;2022-08-30T05:14:47;953.63;;;865.20;;
10890;SDS011;5498;50.928;11.598;2022-08-30T05:17:49;956.63;;;867.90;;
10890;SDS011;5498;50.928;11.598;2022-08-30T05:21:01;973.57;;;883.97;;
10890;SDS011;5498;50.928;11.598;2022-08-30T05:24:05;941.37;;;854.07;;
10890;SDS011;5498;50.928;11.598;2022-08-30T05:27:07;980.07;;;890.33;;
10890;SDS011;5498;50.928;11.598;2022-08-30T05:30:11;981.60;;;891.93;;
10890;SDS011;5498;50.928;11.598;2022-08-30T05:33:14;987.13;;;897.03;;
10890;SDS011;5498;50.928;11.598;2022-08-30T05:36:16;993.40;;;901.77;;
10890;SDS011;5498;50.928;11.598;2022-08-30T05:39:21;1023.63;;;930.80;;
10890;SDS011;5498;50.928;11.598;2022-08-30T05:42:24;992.30;;;902.27;;
10890;SDS011;5498;50.928;11.598;2022-08-30T05:45:27;999.20;;;908.90;;
10890;SDS011;5498;50.928;11.598;2022-08-30T05:48:29;1026.43;;;934.70;;
10890;SDS011;5498;50.928;11.598;2022-08-30T05:51:32;1023.90;;;932.33;;
10890;SDS011;5498;50.928;11.598;2022-08-30T05:54:36;1011.87;;;920.90;;
10890;SDS011;5498;50.928;11.598;2022-08-30T05:57:39;1023.90;;;932.17;;
10890;SDS011;5498;50.928;11.598;2022-08-30T06:00:43;1067.70;;;973.50;;
10890;SDS011;5498;50.928;11.598;2022-08-30T06:03:47;1037.57;;;945.80;;
10890;SDS011;5498;50.928;11.598;2022-08-30T06:06:50;1069.00;;;974.77;;
10890;SDS011;5498;50.928;11.598;2022-08-30T06:09:53;1089.23;;;993.87;;
10890;SDS011;5498;50.928;11.598;2022-08-30T06:12:55;1102.00;;;999.90;;
10890;SDS011;5498;50.928;11.598;2022-08-30T06:15:58;1084.30;;;989.13;;
10890;SDS011;5498;50.928;11.598;2022-08-30T06:19:00;1107.20;;;999.90;;
10890;SDS011;5498;50.928;11.598;2022-08-30T06:22:02;1104.43;;;999.90;;
10890;SDS011;5498;50.928;11.598;2022-08-30T06:25:05;1129.00;;;999.90;;
10890;SDS011;5498;50.928;11.598;2022-08-30T06:28:09;1112.73;;;999.90;;
10890;SDS011;5498;50.928;11.598;2022-08-30T06:31:13;1080.77;;;985.87;;
10890;SDS011;5498;50.928;11.598;2022-08-30T06:34:17;1099.30;;;998.23;;
10890;SDS011;5498;50.928;11.598;2022-08-30T06:37:19;1114.73;;;999.90;;
10890;SDS011;5498;50.928;11.598;2022-08-30T06:40:21;1144.57;;;999.90;;
10890;SDS011;5498;50.928;11.598;2022-08-30T06:43:23;1117.83;;;999.90;;
10890;SDS011;5498;50.928;11.598;2022-08-30T06:46:26;1131.87;;;999.90;;
10890;SDS011;5498;50.928;11.598;2022-08-30T06:49:31;1149.47;;;999.90;;
10890;SDS011;5498;50.928;11.598;2022-08-30T06:52:33;1153.23;;;999.90;;
10890;SDS011;5498;50.928;11.598;2022-08-30T06:55:35;1165.77;;;999.90;;
10890;SDS011;5498;50.928;11.598;2022-08-30T06:58:38;1134.03;;;999.90;;
10890;SDS011;5498;50.928;11.598;2022-08-30T07:01:42;1141.70;;;999.90;;
10890;SDS011;5498;50.928;11.598;2022-08-30T07:04:44;1158.37;;;999.90;;
10890;SDS011;5498;50.928;11.598;2022-08-30T07:07:47;1168.57;;;999.90;;
10890;SDS011;5498;50.928;11.598;2022-08-30T07:10:49;1174.03;;;999.90;;
10890;SDS011;5498;50.928;11.598;2022-08-30T07:13:53;1198.17;;;999.90;;
10890;SDS011;5498;50.928;11.598;2022-08-30T07:16:57;1200.93;;;999.90;;
10890;SDS011;5498;50.928;11.598;2022-08-30T07:19:59;1222.13;;;999.90;;
10890;SDS011;5498;50.928;11.598;2022-08-30T07:23:00;1234.53;;;999.90;;
10890;SDS011;5498;50.928;11.598;2022-08-30T07:26:02;1240.17;;;999.90;;
10890;SDS011;5498;50.928;11.598;2022-08-30T07:29:06;1208.40;;;999.90;;
10890;SDS011;5498;50.928;11.598;2022-08-30T07:32:10;1180.73;;;999.90;;
10890;SDS011;5498;50.928;11.598;2022-08-30T07:35:12;1211.50;;;999.90;;
10890;SDS011;5498;50.928;11.598;2022-08-30T07:38:13;1229.97;;;999.90;;
10890;SDS011;5498;50.928;11.598;2022-08-30T07:41:17;1221.57;;;999.90;;
10890;SDS011;5498;50.928;11.598;2022-08-30T07:44:21;1235.50;;;999.90;;
10890;SDS011;5498;50.928;11.598;2022-08-30T07:47:25;1237.53;;;999.90;;
10890;SDS011;5498;50.928;11.598;2022-08-30T07:50:26;1239.30;;;999.90;;
10890;SDS011;5498;50.928;11.598;2022-08-30T07:53:28;1251.73;;;999.90;;
10890;SDS011;5498;50.928;11.598;2022-08-30T07:56:30;1245.20;;;999.90;;
10890;SDS011;5498;50.928;11.598;2022-08-30T07:59:33;1254.00;;;999.90;;
10890;SDS011;5498;50.928;11.598;2022-08-30T08:02:37;1254.70;;;999.90;;
10890;SDS011;5498;50.928;11.598;2022-08-30T08:05:41;1260.93;;;999.90;;
10890;SDS011;5498;50.928;11.598;2022-08-30T08:08:45;1272.70;;;999.90;;
10890;SDS011;5498;50.928;11.598;2022-08-30T08:11:47;1281.37;;;999.90;;
10890;SDS011;5498;50.928;11.598;2022-08-30T08:14:49;1283.90;;;999.90;;
10890;SDS011;5498;50.928;11.598;2022-08-30T08:17:52;1293.00;;;999.90;;
10890;SDS011;5498;50.928;11.598;2022-08-30T08:20:54;1295.33;;;999.90;;
10890;SDS011;5498;50.928;11.598;2022-08-30T08:23:56;1305.13;;;999.90;;
10890;SDS011;5498;50.928;11.598;2022-08-30T08:26:57;1280.83;;;999.90;;
10890;SDS011;5498;50.928;11.598;2022-08-30T08:29:59;1294.63;;;999.90;;
10890;SDS011;5498;50.928;11.598;2022-08-30T08:33:03;1315.20;;;999.90;;
10890;SDS011;5498;50.928;11.598;2022-08-30T08:36:05;1317.03;;;999.90;;
10890;SDS011;5498;50.928;11.598;2022-08-30T08:39:08;1322.37;;;999.90;;
10890;SDS011;5498;50.928;11.598;2022-08-30T08:42:15;1332.23;;;999.90;;
10890;SDS011;5498;50.928;11.598;2022-08-30T08:45:29;1327.77;;;999.90;;
10890;SDS011;5498;50.928;11.598;2022-08-30T08:48:44;1343.97;;;999.90;;
10890;SDS011;5498;50.928;11.598;2022-08-30T08:51:49;1342.13;;;999.90;;
10890;SDS011;5498;50.928;11.598;2022-08-30T08:55:09;1362.27;;;999.90;;
10890;SDS011;5498;50.928;11.598;2022-08-30T08:58:15;1363.93;;;999.90;;
10890;SDS011;5498;50.928;11.598;2022-08-30T09:01:24;1370.73;;;999.90;;
10890;SDS011;5498;50.928;11.598;2022-08-30T09:04:33;1356.07;;;999.90;;
10890;SDS011;5498;50.928;11.598;2022-08-30T09:07:39;1358.27;;;999.90;;
10890;SDS011;5498;50.928;11.598;2022-08-30T09:10:47;1370.70;;;999.90;;
10890;SDS011;5498;50.928;11.598;2022-08-30T09:13:56;1362.23;;;999.90;;
10890;SDS011;5498;50.928;11.598;2022-08-30T09:16:59;1373.60;;;999.90;;
10890;SDS011;5498;50.928;11.598;2022-08-30T09:20:05;1365.67;;;999.90;;
10890;SDS011;5498;50.928;11.598;2022-08-30T09:23:19;1368.47;;;999.90;;
10890;SDS011;5498;50.928;11.598;2022-08-30T09:26:27;1372.13;;;999.90;;
10890;SDS011;5498;50.928;11.598;2022-08-30T09:29:32;1368.50;;;999.90;;
10890;SDS011;5498;50.928;11.598;2022-08-30T09:32:35;1345.93;;;999.90;;
10890;SDS011;5498;50.928;11.598;2022-08-30T09:35:42;1343.97;;;999.90;;
10890;SDS011;5498;50.928;11.598;2022-08-30T09:38:46;1350.57;;;999.90;;
10890;SDS011;5498;50.928;11.598;2022-08-30T09:42:10;1335.70;;;999.90;;
10890;SDS011;5498;50.928;11.598;2022-08-30T09:45:19;1327.80;;;999.90;;
10890;SDS011;5498;50.928;11.598;2022-08-30T09:48:33;1341.70;;;999.90;;
10890;SDS011;5498;50.928;11.598;2022-08-30T09:51:42;1340.67;;;999.90;;
10890;SDS011;5498;50.928;11.598;2022-08-30T09:54:59;1336.60;;;999.90;;
10890;SDS011;5498;50.928;11.598;2022-08-30T09:58:15;1334.33;;;999.90;;
10890;SDS011;5498;50.928;11.598;2022-08-30T10:01:28;1352.57;;;999.90;;
10890;SDS011;5498;50.928;11.598;2022-08-30T10:04:37;1326.67;;;999.90;;
10890;SDS011;5498;50.928;11.598;2022-08-30T10:07:51;1341.70;;;999.90;;
10890;SDS011;5498;50.928;11.598;2022-08-30T10:11:03;1332.67;;;999.90;;
10890;SDS011;5498;50.928;11.598;2022-08-30T10:17:42;1321.50;;;999.90;;
10890;SDS011;5498;50.928;11.598;2022-08-30T10:20:57;1339.77;;;999.90;;
10890;SDS011;5498;50.928;11.598;2022-08-30T10:24:10;1353.93;;;999.90;;
10890;SDS011;5498;50.928;11.598;2022-08-30T10:27:18;1341.13;;;999.90;;
10890;SDS011;5498;50.928;11.598;2022-08-30T10:30:26;1333.60;;;999.90;;
10890;SDS011;5498;50.928;11.598;2022-08-30T10:33:32;1327.97;;;999.90;;
10890;SDS011;5498;50.928;11.598;2022-08-30T10:36:41;1339.27;;;999.90;;
10890;SDS011;5498;50.928;11.598;2022-08-30T10:39:49;1329.97;;;999.90;;
10890;SDS011;5498;50.928;11.598;2022-08-30T10:42:53;1329.03;;;999.90;;
10890;SDS011;5498;50.928;11.598;2022-08-30T10:46:02;1333.03;;;999.90;;
10890;SDS011;5498;50.928;11.598;2022-08-30T10:49:13;1331.80;;;999.90;;
10890;SDS011;5498;50.928;11.598;2022-08-30T10:52:21;1319.23;;;999.90;;
10890;SDS011;5498;50.928;11.598;2022-08-30T10:55:32;1312.13;;;999.90;;
10890;SDS011;5498;50.928;11.598;2022-08-30T10:58:38;1320.50;;;999.90;;
10890;SDS011;5498;50.928;11.598;2022-08-30T11:01:47;1311.23;;;999.90;;
10890;SDS011;5498;50.928;11.598;2022-08-30T11:05:42;1317.27;;;999.90;;
10890;SDS011;5498;50.928;11.598;2022-08-30T11:09:12;1324.30;;;999.90;;
10890;SDS011;5498;50.928;11.598;2022-08-30T11:12:31;1306.37;;;999.90;;
10890;SDS011;5498;50.928;11.598;2022-08-30T11:15:50;1299.13;;;999.90;;
10890;SDS011;5498;50.928;11.598;2022-08-30T11:18:57;1300.63;;;999.90;;
10890;SDS011;5498;50.928;11.598;2022-08-30T11:22:07;1300.13;;;999.90;;
10890;SDS011;5498;50.928;11.598;2022-08-30T11:25:15;1296.10;;;999.90;;
10890;SDS011;5498;50.928;11.598;2022-08-30T11:29:04;1288.83;;;999.90;;
10890;SDS011;5498;50.928;11.598;2022-08-30T11:35:58;1279.80;;;999.90;;
10890;SDS011;5498;50.928;11.598;2022-08-30T11:39:02;1277.17;;;999.90;;
10890;SDS011;5498;50.928;11.598;2022-08-30T11:42:10;1261.07;;;999.90;;
10890;SDS011;5498;50.928;11.598;2022-08-30T11:45:47;1261.73;;;999.90;;
10890;SDS011;5498;50.928;11.598;2022-08-30T11:48:54;1249.37;;;999.90;;
10890;SDS011;5498;50.928;11.598;2022-08-30T11:52:10;1264.27;;;999.90;;
10890;SDS011;5498;50.928;11.598;2022-08-30T11:58:58;1255.53;;;999.90;;
10890;SDS011;5498;50.928;11.598;2022-08-30T12:02:07;1262.93;;;999.90;;
10890;SDS011;5498;50.928;11.598;2022-08-30T12:08:52;1260.07;;;999.90;;
10890;SDS011;5498;50.928;11.598;2022-08-30T12:11:54;1277.60;;;999.90;;
10890;SDS011;5498;50.928;11.598;2022-08-30T12:14:58;1275.83;;;999.90;;
10890;SDS011;5498;50.928;11.598;2022-08-30T12:18:02;1273.27;;;999.90;;
10890;SDS011;5498;50.928;11.598;2022-08-30T12:21:23;1299.37;;;999.90;;
10890;SDS011;5498;50.928;11.598;2022-08-30T12:24:30;1289.00;;;999.90;;
10890;SDS011;5498;50.928;11.598;2022-08-30T12:27:43;1288.67;;;999.90;;
10890;SDS011;5498;50.928;11.598;2022-08-30T12:30:45;1265.30;;;999.90;;
10890;SDS011;5498;50.928;11.598;2022-08-30T12:33:51;1281.63;;;999.90;;
10890;SDS011;5498;50.928;11.598;2022-08-30T12:36:58;1301.27;;;999.90;;
10890;SDS011;5498;50.928;11.598;2022-08-30T12:40:05;1299.10;;;999.90;;
10890;SDS011;5498;50.928;11.598;2022-08-30T12:43:15;1267.83;;;999.90;;
10890;SDS011;5498;50.928;11.598;2022-08-30T12:46:32;1283.90;;;999.90;;
10890;SDS011;5498;50.928;11.598;2022-08-30T12:49:35;1283.60;;;999.90;;
10890;SDS011;5498;50.928;11.598;2022-08-30T12:52:40;1272.80;;;999.90;;
10890;SDS011;5498;50.928;11.598;2022-08-30T12:55:49;1264.60;;;999.90;;
10890;SDS011;5498;50.928;11.598;2022-08-30T12:58:55;1253.43;;;999.90;;
10890;SDS011;5498;50.928;11.598;2022-08-30T13:02:04;1268.20;;;999.90;;
10890;SDS011;5498;50.928;11.598;2022-08-30T13:05:41;1245.37;;;999.90;;
10890;SDS011;5498;50.928;11.598;2022-08-30T13:08:48;1262.60;;;999.90;;
10890;SDS011;5498;50.928;11.598;2022-08-30T13:11:55;1245.23;;;999.90;;
10890;SDS011;5498;50.928;11.598;2022-08-30T13:15:08;1240.73;;;999.90;;
10890;SDS011;5498;50.928;11.598;2022-08-30T13:18:18;1233.87;;;999.90;;
10890;SDS011;5498;50.928;11.598;2022-08-30T13:21:31;1256.17;;;999.90;;
10890;SDS011;5498;50.928;11.598;2022-08-30T13:24:35;1260.87;;;999.90;;
10890;SDS011;5498;50.928;11.598;2022-08-30T13:27:38;1250.90;;;999.90;;
10890;SDS011;5498;50.928;11.598;2022-08-30T13:30:40;1245.63;;;999.90;;
10890;SDS011;5498;50.928;11.598;2022-08-30T13:33:43;1257.33;;;999.90;;
10890;SDS011;5498;50.928;11.598;2022-08-30T13:36:47;1250.37;;;999.90;;
10890;SDS011;5498;50.928;11.598;2022-08-30T13:39:51;1259.47;;;999.90;;
10890;SDS011;5498;50.928;11.598;2022-08-30T13:42:53;1252.63;;;999.90;;
10890;SDS011;5498;50.928;11.598;2022-08-30T13:45:55;1242.40;;;999.90;;
10890;SDS011;5498;50.928;11.598;2022-08-30T13:49:00;1258.03;;;999.90;;
10890;SDS011;5498;50.928;11.598;2022-08-30T13:52:07;1258.97;;;999.90;;
10890;SDS011;5498;50.928;11.598;2022-08-30T13:55:09;1254.17;;;999.90;;
10890;SDS011;5498;50.928;11.598;2022-08-30T13:58:11;1254.97;;;999.90;;
10890;SDS011;5498;50.928;11.598;2022-08-30T14:01:13;1270.77;;;999.90;;
10890;SDS011;5498;50.928;11.598;2022-08-30T14:04:15;1239.80;;;999.90;;
10890;SDS011;5498;50.928;11.598;2022-08-30T14:07:18;1236.03;;;999.90;;
10890;SDS011;5498;50.928;11.598;2022-08-30T14:10:20;1257.80;;;999.90;;
10890;SDS011;5498;50.928;11.598;2022-08-30T14:13:26;1236.67;;;999.90;;
10890;SDS011;5498;50.928;11.598;2022-08-30T14:16:29;1260.73;;;999.90;;
10890;SDS011;5498;50.928;11.598;2022-08-30T14:19:32;1259.30;;;999.90;;
10890;SDS011;5498;50.928;11.598;2022-08-30T14:22:36;1252.37;;;999.90;;
10890;SDS011;5498;50.928;11.598;2022-08-30T14:25:38;1250.43;;;999.90;;
10890;SDS011;5498;50.928;11.598;2022-08-30T14:28:41;1245.70;;;999.90;;
10890;SDS011;5498;50.928;11.598;2022-08-30T14:31:43;1251.07;;;999.90;;
10890;SDS011;5498;50.928;11.598;2022-08-30T14:34:47;1262.70;;;999.90;;
10890;SDS011;5498;50.928;11.598;2022-08-30T14:37:50;1247.83;;;999.90;;
10890;SDS011;5498;50.928;11.598;2022-08-30T14:40:52;1262.87;;;999.90;;
10890;SDS011;5498;50.928;11.598;2022-08-30T14:43:54;1250.23;;;999.90;;
10890;SDS011;5498;50.928;11.598;2022-08-30T14:46:57;1259.20;;;999.90;;
10890;SDS011;5498;50.928;11.598;2022-08-30T14:49:59;1258.70;;;999.90;;
10890;SDS011;5498;50.928;11.598;2022-08-30T14:53:03;1242.07;;;999.90;;
10890;SDS011;5498;50.928;11.598;2022-08-30T14:56:07;1246.03;;;999.90;;
10890;SDS011;5498;50.928;11.598;2022-08-30T14:59:10;1257.07;;;999.90;;
10890;SDS011;5498;50.928;11.598;2022-08-30T15:02:13;1245.63;;;999.90;;
10890;SDS011;5498;50.928;11.598;2022-08-30T15:05:15;1261.87;;;999.90;;
10890;SDS011;5498;50.928;11.598;2022-08-30T15:08:21;1259.47;;;999.90;;
10890;SDS011;5498;50.928;11.598;2022-08-30T15:11:23;1249.23;;;999.90;;
10890;SDS011;5498;50.928;11.598;2022-08-30T15:14:26;1250.03;;;999.90;;
10890;SDS011;5498;50.928;11.598;2022-08-30T15:17:30;1251.43;;;999.90;;
10890;SDS011;5498;50.928;11.598;2022-08-30T15:20:32;1240.03;;;999.90;;
10890;SDS011;5498;50.928;11.598;2022-08-30T15:23:36;1246.27;;;999.90;;
10890;SDS011;5498;50.928;11.598;2022-08-30T15:26:38;1228.50;;;999.90;;
10890;SDS011;5498;50.928;11.598;2022-08-30T15:29:42;1254.73;;;999.90;;
10890;SDS011;5498;50.928;11.598;2022-08-30T15:32:44;1255.70;;;999.90;;
10890;SDS011;5498;50.928;11.598;2022-08-30T15:35:46;1248.87;;;999.90;;
10890;SDS011;5498;50.928;11.598;2022-08-30T15:38:53;1239.73;;;999.90;;
10890;SDS011;5498;50.928;11.598;2022-08-30T15:41:57;1242.50;;;999.90;;
10890;SDS011;5498;50.928;11.598;2022-08-30T15:44:59;1257.77;;;999.90;;
10890;SDS011;5498;50.928;11.598;2022-08-30T15:48:02;1231.97;;;999.90;;
10890;SDS011;5498;50.928;11.598;2022-08-30T15:51:04;1243.10;;;999.90;;
10890;SDS011;5498;50.928;11.598;2022-08-30T15:54:07;1243.83;;;999.90;;
10890;SDS011;5498;50.928;11.598;2022-08-30T15:57:11;1255.13;;;999.90;;
10890;SDS011;5498;50.928;11.598;2022-08-30T16:00:13;1237.17;;;999.90;;
10890;SDS011;5498;50.928;11.598;2022-08-30T16:03:16;1255.43;;;999.90;;
10890;SDS011;5498;50.928;11.598;2022-08-30T16:06:20;1240.57;;;999.90;;
10890;SDS011;5498;50.928;11.598;2022-08-30T16:09:26;1244.47;;;999.90;;
10890;SDS011;5498;50.928;11.598;2022-08-30T16:12:29;1243.60;;;999.90;;
10890;SDS011;5498;50.928;11.598;2022-08-30T16:15:31;1234.03;;;999.90;;
10890;SDS011;5498;50.928;11.598;2022-08-30T16:18:33;1244.83;;;999.90;;
10890;SDS011;5498;50.928;11.598;2022-08-30T16:21:36;1232.47;;;999.90;;
10890;SDS011;5498;50.928;11.598;2022-08-30T16:24:42;1249.87;;;999.90;;
10890;SDS011;5498;50.928;11.598;2022-08-30T16:46:12;1235.47;;;999.90;;
10890;SDS011;5498;50.928;11.598;2022-08-30T16:49:16;1224.47;;;999.90;;
10890;SDS011;5498;50.928;11.598;2022-08-30T16:52:20;1217.27;;;999.90;;
10890;SDS011;5498;50.928;11.598;2022-08-30T16:55:22;1215.57;;;999.90;;
10890;SDS011;5498;50.928;11.598;2022-08-30T16:58:35;1202.90;;;999.90;;
10890;SDS011;5498;50.928;11.598;2022-08-30T17:01:38;1213.60;;;999.90;;
10890;SDS011;5498;50.928;11.598;2022-08-30T17:04:42;1213.57;;;999.90;;
10890;SDS011;5498;50.928;11.598;2022-08-30T17:07:45;1205.60;;;999.90;;
10890;SDS011;5498;50.928;11.598;2022-08-30T17:10:47;1200.70;;;999.90;;
10890;SDS011;5498;50.928;11.598;2022-08-30T17:13:49;1207.77;;;999.90;;
10890;SDS011;5498;50.928;11.598;2022-08-30T17:20:28;1197.97;;;999.90;;
10890;SDS011;5498;50.928;11.598;2022-08-30T17:23:33;1210.23;;;999.90;;
10890;SDS011;5498;50.928;11.598;2022-08-30T17:26:36;1201.87;;;999.90;;
10890;SDS011;5498;50.928;11.598;2022-08-30T17:29:38;1204.43;;;999.90;;
10890;SDS011;5498;50.928;11.598;2022-08-30T17:32:42;1201.30;;;999.90;;
10890;SDS011;5498;50.928;11.598;2022-08-30T17:35:44;1200.13;;;999.90;;
10890;SDS011;5498;50.928;11.598;2022-08-30T17:38:46;1194.27;;;999.90;;
10890;SDS011;5498;50.928;11.598;2022-08-30T17:41:48;1192.23;;;999.90;;
10890;SDS011;5498;50.928;11.598;2022-08-30T17:44:50;1194.37;;;999.90;;
10890;SDS011;5498;50.928;11.598;2022-08-30T17:47:53;1198.07;;;999.90;;
10890;SDS011;5498;50.928;11.598;2022-08-30T17:50:55;1188.13;;;999.90;;
10890;SDS011;5498;50.928;11.598;2022-08-30T17:53:57;1195.07;;;999.90;;
10890;SDS011;5498;50.928;11.598;2022-08-30T17:57:00;1189.83;;;999.90;;